Tarnow, Poland
Current Conditions -  °F | °C
As of 7:30 AM on Tuesday 27 Jan 2015 (Local Time) from EPRZ Reporting Station
Overcast Overcast  
Wind Chill: 23°   Ceiling: 3600
Heat Index: 30°   Visibility: 5mi
Dew Point: 28°   Wind: 7mph
Humidity: 93%   Direction: 180°S
Pressure: 29.94"   Gusts: NA
Location:  50.01°N, 20.99°E
Report Text: EPRZ 270530Z 18006KT 8000 OVC036 M01/M02 Q1014 R27/62//95
Loading
Personal Weather Stations






























Interactive Weather Map New forecast layout! Learn more

10-Day Weather Forecast

Advertisements
Track Severe Weather on mobile